Terminal Aerodrome Forecast
Issued by NWS

Home | Current Version | Previous Version | Text Only | Print | Product List | Glossary On
Versions: 1 2 3 4 5 6 7 8 9 10 11 12 13 14 15 16 17 18
000
FTUS42 TJSJ 021142
TAFJSJ
TAF
TJSJ 021142Z 0212/0312 08005KT P6SM VCSH FEW030 SCT090
     FM021600 08011KT P6SM -RA FEW020 SCT030 SCT080
     FM022300 11007KT P6SM VCSH FEW030 FEW040=

USA.gov is the U.S. government's official web portal to all federal, state and local government web resources and services.